Time;durP1;ratioP1;P1;durP2;ratioP2;P2;SDS_P1;SDS_P2;PMS_P1;PMS_P2;Temp;Humidity;BMP_temperature;BMP_pressure;BME280_temperature;BME280_humidity;BME280_pressure;Samples;Min_cycle;Max_cycle;Signal;HPM_P1;HPM_P2
2022/12/08 00:00:21;;;;;;;7.28;3.70;;;;;;;;;;5005524;28;99008;-74
2022/12/08 00:02:49;;;;;;;3.63;3.33;;;;;;;;;;4995871;28;99114;-71
2022/12/08 00:10:46;;;;;;;4.93;4.50;;;;;;;;;;4991360;28;99335;-72
2022/12/08 00:13:15;;;;;;;8.00;5.47;;;;;;;;;;4999122;28;99768;-72
2022/12/08 00:15:41;;;;;;;6.75;6.10;;;;;;;;;;4987933;28;98688;-72
2022/12/08 00:18:07;;;;;;;10.20;6.45;;;;;;;;;;4994640;28;99394;-72
2022/12/08 00:20:34;;;;;;;10.70;6.07;;;;;;;;;;4998476;28;100140;-72
2022/12/08 00:23:00;;;;;;;10.27;6.38;;;;;;;;;;4995839;28;99036;-72
2022/12/08 00:25:27;;;;;;;9.68;7.07;;;;;;;;;;4995765;28;98926;-71
2022/12/08 00:27:53;;;;;;;7.40;5.85;;;;;;;;;;4988443;28;99580;-72
2022/12/08 00:30:19;;;;;;;10.60;6.45;;;;;;;;;;4995720;28;99836;-72
2022/12/08 00:32:46;;;;;;;6.75;6.13;;;;;;;;;;4997832;28;100289;-72
2022/12/08 00:35:12;;;;;;;10.68;6.05;;;;;;;;;;4993677;28;99177;-72
2022/12/08 00:37:38;;;;;;;9.70;7.25;;;;;;;;;;5005311;28;100152;-72
2022/12/08 00:40:05;;;;;;;10.57;6.45;;;;;;;;;;4998197;28;99289;-72
2022/12/08 00:42:32;;;;;;;8.23;6.50;;;;;;;;;;4998727;28;100086;-72
2022/12/08 00:44:58;;;;;;;7.28;6.57;;;;;;;;;;4990177;28;99636;-72
2022/12/08 00:47:24;;;;;;;8.25;6.45;;;;;;;;;;5003159;28;100252;-72
2022/12/08 00:49:51;;;;;;;7.80;6.88;;;;;;;;;;4993792;28;100711;-72
2022/12/08 00:52:17;;;;;;;7.65;6.97;;;;;;;;;;4994930;28;100036;-73
2022/12/08 00:54:44;;;;;;;8.23;7.50;;;;;;;;;;5002403;28;99141;-71
2022/12/08 00:57:10;;;;;;;9.75;8.45;;;;;;;;;;4987535;28;100400;-72
2022/12/08 00:59:36;;;;;;;9.27;8.48;;;;;;;;;;4996787;28;99167;-72
2022/12/08 01:02:03;;;;;;;10.43;9.52;;;;;;;;;;4985434;28;99631;-72
2022/12/08 01:04:29;;;;;;;13.25;10.13;;;;;;;;;;4997431;28;99339;-72
2022/12/08 01:06:55;;;;;;;10.38;9.55;;;;;;;;;;5005377;28;99438;-72
2022/12/08 01:09:22;;;;;;;10.07;9.15;;;;;;;;;;4998324;28;100307;-72
2022/12/08 01:11:48;;;;;;;11.32;10.13;;;;;;;;;;4994380;28;99898;-73
2022/12/08 01:14:15;;;;;;;11.00;9.73;;;;;;;;;;4992810;28;100298;-72
2022/12/08 01:16:41;;;;;;;17.08;10.80;;;;;;;;;;4997799;28;100589;-72
2022/12/08 01:19:09;;;;;;;10.52;9.57;;;;;;;;;;5001248;28;99234;-72
2022/12/08 01:21:35;;;;;;;13.55;11.02;;;;;;;;;;4993484;28;98579;-72
2022/12/08 01:24:02;;;;;;;10.00;9.10;;;;;;;;;;5004881;28;100281;-72
2022/12/08 01:26:28;;;;;;;10.95;9.82;;;;;;;;;;5000827;28;100454;-72
2022/12/08 01:28:55;;;;;;;13.18;9.43;;;;;;;;;;4994182;28;100146;-72
2022/12/08 01:31:22;;;;;;;10.77;9.77;;;;;;;;;;5000247;28;99945;-72
2022/12/08 01:33:49;;;;;;;10.88;9.43;;;;;;;;;;4988227;28;99458;-72
2022/12/08 01:36:20;;;;;;;9.18;8.27;;;;;;;;;;4998941;28;100348;-72
2022/12/08 01:38:47;;;;;;;8.73;7.93;;;;;;;;;;4988677;28;100056;-72
2022/12/08 01:41:15;;;;;;;9.88;7.75;;;;;;;;;;4990345;28;98999;-72
2022/12/08 01:43:53;;;;;;;7.10;6.40;;;;;;;;;;4989495;28;99381;-72
2022/12/08 01:46:21;;;;;;;6.07;4.30;;;;;;;;;;4997416;28;101248;-73
2022/12/08 01:48:48;;;;;;;4.18;3.92;;;;;;;;;;4989311;28;100258;-72
2022/12/08 01:51:15;;;;;;;4.50;4.10;;;;;;;;;;4993536;28;100617;-72
2022/12/08 01:53:42;;;;;;;4.15;3.33;;;;;;;;;;4986148;28;100675;-72
2022/12/08 01:56:13;;;;;;;6.45;4.45;;;;;;;;;;4989224;28;102722;-72
2022/12/08 01:58:44;;;;;;;8.05;4.38;;;;;;;;;;5004745;28;99925;-72
2022/12/08 02:01:11;;;;;;;5.82;4.85;;;;;;;;;;4987800;28;100034;-73
2022/12/08 02:03:57;;;;;;;4.47;4.10;;;;;;;;;;4996060;28;99389;-72
2022/12/08 02:06:25;;;;;;;4.38;4.07;;;;;;;;;;4992417;28;99944;-72
2022/12/08 02:08:54;;;;;;;9.15;4.30;;;;;;;;;;4995777;28;99945;-72
2022/12/08 02:11:22;;;;;;;3.75;3.55;;;;;;;;;;5001082;28;100171;-72
2022/12/08 02:13:50;;;;;;;3.88;3.58;;;;;;;;;;4997816;28;98487;-73
2022/12/08 02:16:17;;;;;;;4.18;3.78;;;;;;;;;;4989495;28;100929;-73
2022/12/08 02:18:50;;;;;;;5.95;3.85;;;;;;;;;;4985512;28;99818;-73
2022/12/08 02:21:55;;;;;;;4.60;4.25;;;;;;;;;;4991613;28;99798;-73
2022/12/08 02:24:24;;;;;;;5.38;4.88;;;;;;;;;;4998902;28;100104;-72
2022/12/08 02:27:05;;;;;;;6.05;5.55;;;;;;;;;;4996422;28;101613;-73
2022/12/08 02:29:58;;;;;;;6.20;5.80;;;;;;;;;;5000711;28;99844;-73
2022/12/08 02:32:36;;;;;;;7.37;6.73;;;;;;;;;;4969028;28;99454;-73
2022/12/08 02:35:12;;;;;;;9.70;8.00;;;;;;;;;;4997976;28;100292;-73
2022/12/08 02:37:42;;;;;;;7.68;7.18;;;;;;;;;;4990856;28;100265;-73
2022/12/08 02:40:24;;;;;;;9.07;8.23;;;;;;;;;;4995261;28;100254;-73
2022/12/08 02:42:55;;;;;;;8.98;8.18;;;;;;;;;;4985731;28;99363;-73
2022/12/08 02:45:30;;;;;;;8.60;7.97;;;;;;;;;;4987930;28;99251;-73
2022/12/08 02:47:57;;;;;;;8.98;8.27;;;;;;;;;;4996634;28;100293;-73
2022/12/08 02:50:25;;;;;;;10.35;9.38;;;;;;;;;;4992861;28;99278;-73
2022/12/08 02:52:52;;;;;;;9.68;8.88;;;;;;;;;;4992181;28;99747;-74
2022/12/08 02:55:21;;;;;;;12.15;9.18;;;;;;;;;;4993927;28;100153;-73
2022/12/08 02:58:13;;;;;;;11.52;9.90;;;;;;;;;;4987829;28;99629;-73
2022/12/08 03:00:43;;;;;;;11.18;9.60;;;;;;;;;;4984838;28;100358;-73
2022/12/08 03:03:34;;;;;;;9.80;8.90;;;;;;;;;;4985503;28;99268;-73
2022/12/08 03:06:05;;;;;;;10.88;9.70;;;;;;;;;;4991916;28;99410;-73
2022/12/08 03:08:41;;;;;;;10.55;9.60;;;;;;;;;;4999602;28;100069;-73
2022/12/08 03:11:26;;;;;;;17.55;9.60;;;;;;;;;;4993462;28;100799;-73
2022/12/08 03:13:55;;;;;;;10.02;9.02;;;;;;;;;;4984657;28;99610;-73
2022/12/08 03:16:26;;;;;;;6.65;6.22;;;;;;;;;;4997675;28;100002;-72
2022/12/08 03:19:00;;;;;;;6.97;6.25;;;;;;;;;;4993977;28;99799;-73
2022/12/08 03:21:27;;;;;;;7.88;7.00;;;;;;;;;;4994482;28;99442;-73
2022/12/08 03:23:54;;;;;;;10.43;8.25;;;;;;;;;;4991024;28;100152;-73
2022/12/08 03:26:44;;;;;;;9.80;6.95;;;;;;;;;;4992670;28;98763;-72
2022/12/08 03:29:11;;;;;;;8.82;8.07;;;;;;;;;;4975777;28;100127;-72
2022/12/08 03:31:40;;;;;;;9.23;5.65;;;;;;;;;;4985207;28;100224;-73
2022/12/08 03:34:08;;;;;;;9.05;7.80;;;;;;;;;;4983388;28;100201;-73
2022/12/08 03:36:34;;;;;;;9.23;7.47;;;;;;;;;;4992565;28;100634;-72
2022/12/08 03:39:01;;;;;;;8.50;7.90;;;;;;;;;;4992538;28;98959;-72
2022/12/08 03:41:27;;;;;;;7.25;6.55;;;;;;;;;;4995866;28;100118;-73
2022/12/08 03:43:54;;;;;;;7.45;6.75;;;;;;;;;;4996296;28;100009;-73
2022/12/08 03:46:22;;;;;;;7.40;6.22;;;;;;;;;;5001482;28;99263;-73
2022/12/08 03:48:47;;;;;;;6.50;4.82;;;;;;;;;;4985063;28;99115;-73
2022/12/08 03:51:14;;;;;;;7.55;5.53;;;;;;;;;;4996693;28;100181;-73
2022/12/08 03:53:41;;;;;;;5.07;4.72;;;;;;;;;;5002699;28;100493;-72
2022/12/08 03:56:14;;;;;;;4.70;4.40;;;;;;;;;;4997884;28;99888;-72
2022/12/08 03:58:41;;;;;;;8.93;4.45;;;;;;;;;;4993685;28;99981;-73
2022/12/08 04:01:08;;;;;;;10.05;3.88;;;;;;;;;;5003488;28;100451;-73
2022/12/08 04:03:34;;;;;;;4.75;4.35;;;;;;;;;;4988655;28;99332;-73
2022/12/08 04:06:00;;;;;;;8.65;3.67;;;;;;;;;;4993756;28;100513;-73
2022/12/08 04:08:27;;;;;;;4.47;2.63;;;;;;;;;;4992181;28;100013;-73
2022/12/08 04:10:53;;;;;;;3.78;2.90;;;;;;;;;;4998778;28;100068;-74
2022/12/08 04:13:20;;;;;;;3.05;2.85;;;;;;;;;;4999608;28;100278;-74
2022/12/08 04:15:47;;;;;;;3.80;2.60;;;;;;;;;;4995608;28;100084;-74
2022/12/08 04:18:13;;;;;;;3.03;2.42;;;;;;;;;;4984790;28;99085;-73
2022/12/08 04:20:40;;;;;;;2.28;2.17;;;;;;;;;;4991443;28;99588;-73
2022/12/08 04:23:07;;;;;;;4.90;2.60;;;;;;;;;;4995175;28;99373;-74
2022/12/08 04:25:34;;;;;;;4.78;2.13;;;;;;;;;;4989847;28;100519;-74
2022/12/08 04:28:01;;;;;;;3.00;2.30;;;;;;;;;;5003467;28;100143;-74
2022/12/08 04:30:27;;;;;;;3.25;1.92;;;;;;;;;;4995914;28;99938;-74
2022/12/08 04:32:54;;;;;;;3.92;1.95;;;;;;;;;;5001881;28;99335;-74
2022/12/08 04:35:20;;;;;;;4.13;1.90;;;;;;;;;;5003305;28;100169;-73
2022/12/08 04:37:47;;;;;;;4.45;2.33;;;;;;;;;;5002020;28;99966;-74
2022/12/08 04:40:13;;;;;;;3.75;2.38;;;;;;;;;;5001741;28;98822;-74
2022/12/08 04:42:40;;;;;;;4.50;2.28;;;;;;;;;;4986486;28;100490;-74
2022/12/08 04:45:06;;;;;;;3.83;1.90;;;;;;;;;;4991179;28;99197;-74
2022/12/08 04:47:32;;;;;;;7.85;2.25;;;;;;;;;;4993347;28;101076;-74
2022/12/08 04:49:59;;;;;;;2.55;2.10;;;;;;;;;;5002487;28;99930;-74
2022/12/08 04:52:25;;;;;;;3.40;1.83;;;;;;;;;;4988697;28;100230;-74
2022/12/08 04:54:52;;;;;;;11.15;2.10;;;;;;;;;;4999176;28;99991;-74
2022/12/08 04:57:18;;;;;;;2.55;1.88;;;;;;;;;;4996488;28;100052;-75
2022/12/08 04:59:44;;;;;;;7.05;2.47;;;;;;;;;;4994041;28;100726;-74
2022/12/08 05:02:12;;;;;;;5.35;2.58;;;;;;;;;;4998269;28;100288;-74
2022/12/08 05:04:38;;;;;;;3.78;3.40;;;;;;;;;;4999856;28;99054;-75
2022/12/08 05:07:07;;;;;;;3.30;2.78;;;;;;;;;;4983663;28;99982;-74
2022/12/08 05:09:36;;;;;;;2.20;2.10;;;;;;;;;;4993809;28;98620;-74
2022/12/08 05:12:03;;;;;;;2.92;2.70;;;;;;;;;;4986491;28;101082;-76
2022/12/08 05:14:30;;;;;;;3.42;3.13;;;;;;;;;;4987887;28;100292;-76
2022/12/08 05:16:56;;;;;;;2.63;2.45;;;;;;;;;;4980184;28;99366;-76
2022/12/08 05:19:22;;;;;;;2.40;2.30;;;;;;;;;;4993523;28;99486;-76
2022/12/08 05:21:49;;;;;;;2.40;2.20;;;;;;;;;;5002768;28;100107;-77
2022/12/08 05:24:15;;;;;;;2.60;2.50;;;;;;;;;;4999034;28;100175;-77
2022/12/08 05:26:41;;;;;;;2.85;2.63;;;;;;;;;;4990882;28;100731;-76
2022/12/08 05:29:08;;;;;;;2.47;2.28;;;;;;;;;;5001006;28;100123;-76
2022/12/08 05:31:34;;;;;;;2.55;2.35;;;;;;;;;;4998186;28;99675;-76
2022/12/08 05:34:01;;;;;;;6.10;2.60;;;;;;;;;;4995333;28;99458;-76
2022/12/08 05:36:28;;;;;;;4.32;1.88;;;;;;;;;;4985566;28;100705;-77
2022/12/08 05:38:57;;;;;;;2.38;2.05;;;;;;;;;;4995214;28;100384;-76
2022/12/08 05:41:24;;;;;;;3.22;1.60;;;;;;;;;;4993262;28;99095;-76
2022/12/08 05:43:50;;;;;;;1.40;1.20;;;;;;;;;;4985936;28;99953;-74
2022/12/08 05:46:16;;;;;;;1.20;1.17;;;;;;;;;;4985927;28;100792;-74
2022/12/08 05:48:43;;;;;;;1.30;1.20;;;;;;;;;;4992473;28;100058;-74
2022/12/08 05:51:15;;;;;;;1.58;1.40;;;;;;;;;;4997283;28;100286;-74
2022/12/08 05:53:42;;;;;;;1.60;1.50;;;;;;;;;;4993684;28;101575;-75
2022/12/08 05:56:08;;;;;;;2.25;1.52;;;;;;;;;;4988879;28;99157;-74
2022/12/08 05:58:34;;;;;;;4.68;1.42;;;;;;;;;;5005300;28;101127;-74
2022/12/08 06:01:02;;;;;;;1.35;1.27;;;;;;;;;;4996323;28;99760;-76
2022/12/08 06:03:28;;;;;;;1.95;1.50;;;;;;;;;;4997102;28;100951;-75
2022/12/08 06:05:54;;;;;;;4.63;1.83;;;;;;;;;;4996457;28;100143;-76
2022/12/08 06:08:21;;;;;;;2.17;1.50;;;;;;;;;;4979287;28;99289;-74
2022/12/08 06:10:48;;;;;;;2.28;1.83;;;;;;;;;;4997109;28;99982;-74
2022/12/08 06:13:14;;;;;;;2.35;1.88;;;;;;;;;;4999064;28;99910;-73
2022/12/08 06:15:41;;;;;;;1.95;1.75;;;;;;;;;;4991054;28;99155;-73
2022/12/08 06:18:10;;;;;;;7.68;1.80;;;;;;;;;;4996203;28;99494;-73
2022/12/08 06:20:37;;;;;;;2.75;1.63;;;;;;;;;;4993846;28;100205;-73
2022/12/08 06:23:03;;;;;;;4.53;2.47;;;;;;;;;;4988961;28;99241;-73
2022/12/08 06:25:29;;;;;;;1.55;1.45;;;;;;;;;;4996124;28;100856;-73
2022/12/08 06:27:56;;;;;;;5.00;1.90;;;;;;;;;;4998847;28;98930;-73
2022/12/08 06:30:22;;;;;;;4.28;1.60;;;;;;;;;;4996071;28;98971;-73
2022/12/08 06:32:48;;;;;;;1.92;1.60;;;;;;;;;;4998787;28;100147;-73
2022/12/08 06:35:15;;;;;;;2.60;1.40;;;;;;;;;;4997919;28;100356;-73
2022/12/08 06:37:41;;;;;;;2.08;1.73;;;;;;;;;;4998580;28;100279;-73
2022/12/08 06:40:08;;;;;;;1.60;1.48;;;;;;;;;;4989361;28;100474;-72
2022/12/08 06:42:43;;;;;;;2.30;1.88;;;;;;;;;;4996528;28;98890;-73
2022/12/08 06:45:10;;;;;;;3.97;1.77;;;;;;;;;;4988050;28;99830;-73
2022/12/08 06:47:37;;;;;;;1.48;1.25;;;;;;;;;;4992501;28;99803;-73
2022/12/08 06:50:04;;;;;;;2.85;1.50;;;;;;;;;;4993110;28;99795;-73
2022/12/08 06:52:30;;;;;;;3.47;1.45;;;;;;;;;;4995978;28;100330;-73
2022/12/08 06:54:57;;;;;;;1.83;1.27;;;;;;;;;;4991162;28;101227;-73
2022/12/08 06:57:24;;;;;;;1.75;1.30;;;;;;;;;;4993973;28;99941;-73
2022/12/08 06:59:50;;;;;;;2.30;1.20;;;;;;;;;;5004275;28;100194;-73
2022/12/08 07:02:17;;;;;;;1.65;1.20;;;;;;;;;;4997962;28;100096;-73
2022/12/08 07:04:43;;;;;;;1.25;1.25;;;;;;;;;;5001182;28;100708;-73
2022/12/08 07:07:10;;;;;;;2.88;1.20;;;;;;;;;;4994455;28;99502;-73
2022/12/08 07:09:36;;;;;;;2.25;1.40;;;;;;;;;;4987098;28;99201;-73
2022/12/08 07:12:03;;;;;;;2.33;1.17;;;;;;;;;;4978808;28;100264;-73
2022/12/08 07:14:29;;;;;;;1.50;1.25;;;;;;;;;;5000254;28;99962;-73
2022/12/08 07:16:55;;;;;;;1.60;1.50;;;;;;;;;;4995193;28;100113;-73
2022/12/08 07:19:22;;;;;;;1.77;1.38;;;;;;;;;;4999928;28;99932;-73
2022/12/08 07:21:48;;;;;;;2.25;1.45;;;;;;;;;;4995525;28;99301;-73
2022/12/08 07:24:15;;;;;;;1.50;1.40;;;;;;;;;;4997122;28;100352;-73
2022/12/08 07:26:41;;;;;;;2.00;1.75;;;;;;;;;;4996735;28;100059;-73
2022/12/08 07:29:08;;;;;;;4.30;2.20;;;;;;;;;;4999491;28;99597;-73
2022/12/08 07:31:35;;;;;;;2.67;2.45;;;;;;;;;;4993674;28;99959;-73
2022/12/08 07:34:01;;;;;;;3.10;2.70;;;;;;;;;;4997427;28;100224;-73
2022/12/08 07:36:27;;;;;;;3.25;2.67;;;;;;;;;;4990738;28;99159;-71
2022/12/08 07:38:54;;;;;;;7.00;3.45;;;;;;;;;;4999079;28;100377;-72
2022/12/08 07:41:22;;;;;;;4.50;3.63;;;;;;;;;;4994194;28;99952;-72
2022/12/08 07:43:49;;;;;;;4.50;4.20;;;;;;;;;;4997048;28;100104;-72
2022/12/08 07:46:17;;;;;;;4.80;4.50;;;;;;;;;;4991073;28;99962;-72
2022/12/08 07:48:43;;;;;;;6.05;4.55;;;;;;;;;;5002640;28;100068;-72
2022/12/08 07:51:11;;;;;;;4.63;4.22;;;;;;;;;;4990552;28;100117;-72
2022/12/08 07:53:38;;;;;;;5.63;5.22;;;;;;;;;;4992419;28;99556;-72
2022/12/08 07:56:08;;;;;;;5.45;4.70;;;;;;;;;;4998510;28;100154;-72
2022/12/08 07:58:35;;;;;;;4.88;4.47;;;;;;;;;;4995945;28;100557;-72
2022/12/08 08:01:01;;;;;;;4.85;4.55;;;;;;;;;;5004225;28;100481;-73
2022/12/08 08:03:28;;;;;;;5.93;5.43;;;;;;;;;;4989669;28;100248;-73
2022/12/08 08:05:54;;;;;;;7.85;4.53;;;;;;;;;;4997321;28;99040;-73
2022/12/08 08:08:20;;;;;;;4.72;4.38;;;;;;;;;;5000130;28;99013;-74
2022/12/08 08:10:47;;;;;;;4.00;3.80;;;;;;;;;;5000237;28;99171;-73
2022/12/08 08:13:13;;;;;;;5.30;5.00;;;;;;;;;;4999113;28;99706;-73
2022/12/08 08:15:40;;;;;;;4.75;4.35;;;;;;;;;;4992509;28;99985;-73
2022/12/08 08:18:06;;;;;;;4.72;4.32;;;;;;;;;;4994649;28;100513;-73
2022/12/08 08:20:33;;;;;;;5.43;3.40;;;;;;;;;;4992654;28;99037;-73
2022/12/08 08:22:59;;;;;;;3.75;2.70;;;;;;;;;;4988526;28;99284;-72
2022/12/08 08:25:25;;;;;;;3.13;2.90;;;;;;;;;;4988380;28;100754;-72
2022/12/08 08:27:53;;;;;;;2.60;2.40;;;;;;;;;;4996329;28;100030;-72
2022/12/08 08:30:19;;;;;;;2.42;2.33;;;;;;;;;;4991294;28;99289;-72
2022/12/08 08:32:47;;;;;;;2.35;2.15;;;;;;;;;;4984293;28;100112;-73
2022/12/08 08:35:13;;;;;;;4.95;3.17;;;;;;;;;;4999596;28;100079;-73
2022/12/08 08:37:40;;;;;;;2.72;2.53;;;;;;;;;;4991626;28;100556;-73
2022/12/08 08:40:14;;;;;;;5.03;2.53;;;;;;;;;;4996293;28;101868;-72
2022/12/08 08:42:40;;;;;;;2.47;2.38;;;;;;;;;;4998567;28;100644;-71
2022/12/08 08:45:06;;;;;;;2.30;1.90;;;;;;;;;;5004882;28;98646;-72
2022/12/08 08:47:33;;;;;;;3.88;2.15;;;;;;;;;;4989420;28;99463;-72
2022/12/08 08:49:59;;;;;;;2.42;2.22;;;;;;;;;;4988982;28;100301;-71
2022/12/08 08:52:26;;;;;;;2.10;1.88;;;;;;;;;;4988984;28;101227;-72
2022/12/08 08:54:52;;;;;;;2.55;2.05;;;;;;;;;;4994032;28;99667;-74
2022/12/08 08:57:18;;;;;;;2.20;2.00;;;;;;;;;;4991105;28;100359;-73
2022/12/08 08:59:51;;;;;;;2.03;1.92;;;;;;;;;;5002083;28;99190;-73
2022/12/08 09:02:17;;;;;;;2.17;2.08;;;;;;;;;;4987298;28;100518;-73
2022/12/08 09:04:44;;;;;;;4.15;2.00;;;;;;;;;;4995047;28;100087;-72
2022/12/08 09:07:11;;;;;;;2.78;2.35;;;;;;;;;;5001332;28;99100;-72
2022/12/08 09:09:38;;;;;;;2.47;2.28;;;;;;;;;;4992425;28;99086;-73
2022/12/08 09:12:05;;;;;;;3.10;1.80;;;;;;;;;;4992143;28;100059;-72
2022/12/08 09:14:31;;;;;;;2.50;1.90;;;;;;;;;;4996726;28;99059;-73
2022/12/08 09:16:57;;;;;;;4.15;2.13;;;;;;;;;;4995014;28;101134;-72
2022/12/08 09:19:24;;;;;;;1.55;1.50;;;;;;;;;;4994735;28;99034;-73
2022/12/08 09:21:50;;;;;;;2.03;1.83;;;;;;;;;;4997125;28;99931;-73
2022/12/08 09:24:17;;;;;;;2.78;2.03;;;;;;;;;;4998898;28;102493;-73
2022/12/08 09:26:43;;;;;;;2.00;1.90;;;;;;;;;;5004486;28;99679;-73
2022/12/08 09:29:10;;;;;;;2.45;1.65;;;;;;;;;;4997154;28;99741;-73
2022/12/08 09:31:37;;;;;;;2.38;1.40;;;;;;;;;;4995511;28;100008;-71
2022/12/08 09:34:03;;;;;;;2.08;1.90;;;;;;;;;;5000974;28;98783;-72
2022/12/08 09:36:30;;;;;;;1.88;1.60;;;;;;;;;;4991981;28;99399;-74
2022/12/08 09:38:56;;;;;;;1.75;1.75;;;;;;;;;;4994995;28;100303;-72
2022/12/08 09:41:22;;;;;;;2.00;1.90;;;;;;;;;;4996495;28;100165;-72
2022/12/08 09:44:04;;;;;;;2.78;1.90;;;;;;;;;;5001958;28;99223;-71
2022/12/08 09:46:32;;;;;;;2.28;2.05;;;;;;;;;;4996658;28;99827;-72
2022/12/08 09:48:59;;;;;;;1.77;1.67;;;;;;;;;;5006642;28;99125;-73
2022/12/08 09:51:33;;;;;;;1.95;1.85;;;;;;;;;;4989566;28;100054;-72
2022/12/08 09:54:06;;;;;;;3.63;2.25;;;;;;;;;;4997795;28;99315;-72
2022/12/08 09:56:35;;;;;;;1.60;1.50;;;;;;;;;;4994054;28;100321;-73
2022/12/08 09:59:05;;;;;;;2.10;1.83;;;;;;;;;;4997783;28;99291;-72
2022/12/08 10:01:33;;;;;;;2.20;2.00;;;;;;;;;;4995158;28;98576;-73
2022/12/08 10:04:00;;;;;;;1.70;1.60;;;;;;;;;;4998471;28;100208;-72
2022/12/08 10:06:30;;;;;;;2.65;2.05;;;;;;;;;;5002524;28;99309;-72
2022/12/08 10:09:15;;;;;;;2.80;2.38;;;;;;;;;;4992453;28;101673;-73
2022/12/08 10:12:03;;;;;;;2.47;2.20;;;;;;;;;;4994695;28;100479;-72
2022/12/08 10:14:32;;;;;;;2.55;2.00;;;;;;;;;;4995528;28;98924;-72
2022/12/08 10:17:10;;;;;;;4.30;2.03;;;;;;;;;;4996560;28;99263;-72
2022/12/08 10:19:39;;;;;;;1.30;1.13;;;;;;;;;;5004729;28;99223;-72
2022/12/08 10:22:17;;;;;;;3.65;1.83;;;;;;;;;;5001721;28;99519;-72
2022/12/08 10:24:51;;;;;;;4.13;1.90;;;;;;;;;;4993399;28;99574;-72
2022/12/08 10:27:17;;;;;;;3.28;2.15;;;;;;;;;;4999611;28;99665;-72
2022/12/08 10:29:44;;;;;;;1.80;1.70;;;;;;;;;;4985383;28;99941;-73
2022/12/08 10:32:15;;;;;;;1.80;1.70;;;;;;;;;;4992414;28;100894;-71
2022/12/08 10:35:01;;;;;;;3.13;1.45;;;;;;;;;;5000107;28;100016;-74
2022/12/08 10:37:28;;;;;;;2.80;1.67;;;;;;;;;;4996823;28;99635;-74
2022/12/08 10:39:58;;;;;;;2.42;1.90;;;;;;;;;;4996414;28;100079;-73
2022/12/08 10:42:27;;;;;;;3.65;1.60;;;;;;;;;;5004479;28;100051;-73
2022/12/08 10:44:54;;;;;;;3.45;1.90;;;;;;;;;;4995878;28;99967;-74
2022/12/08 10:47:22;;;;;;;2.00;1.85;;;;;;;;;;5002666;28;101161;-72
2022/12/08 10:50:05;;;;;;;3.13;1.52;;;;;;;;;;5001870;28;100031;-72
2022/12/08 10:52:36;;;;;;;3.90;1.60;;;;;;;;;;5002575;28;99680;-72
2022/12/08 10:55:03;;;;;;;1.40;1.30;;;;;;;;;;4996623;28;99137;-72
2022/12/08 10:57:29;;;;;;;1.35;1.27;;;;;;;;;;5004321;28;100141;-72
2022/12/08 10:59:56;;;;;;;4.43;1.27;;;;;;;;;;4994570;28;102368;-72
2022/12/08 11:02:22;;;;;;;1.20;1.20;;;;;;;;;;4991294;28;99907;-74
2022/12/08 11:04:57;;;;;;;1.05;1.05;;;;;;;;;;4995392;28;100100;-72
2022/12/08 11:07:24;;;;;;;2.13;1.20;;;;;;;;;;4996606;28;100621;-73
2022/12/08 11:09:54;;;;;;;4.72;1.23;;;;;;;;;;4991142;28;99994;-72
2022/12/08 11:12:20;;;;;;;2.78;1.20;;;;;;;;;;5000813;28;99687;-73
2022/12/08 11:14:47;;;;;;;1.52;1.30;;;;;;;;;;5000654;28;99868;-73
2022/12/08 11:17:14;;;;;;;6.55;1.73;;;;;;;;;;4998088;28;99113;-73
2022/12/08 11:19:54;;;;;;;2.47;2.10;;;;;;;;;;5000983;28;99630;-73
2022/12/08 11:22:21;;;;;;;1.50;1.25;;;;;;;;;;5002996;28;99643;-72
2022/12/08 11:24:55;;;;;;;1.50;1.48;;;;;;;;;;4994183;28;100214;-72
2022/12/08 11:27:21;;;;;;;2.10;1.80;;;;;;;;;;5001192;28;99912;-72
2022/12/08 11:29:48;;;;;;;1.75;1.65;;;;;;;;;;4998496;28;99901;-73
2022/12/08 11:32:14;;;;;;;1.55;1.45;;;;;;;;;;4999487;28;99954;-72
2022/12/08 11:34:45;;;;;;;2.15;1.75;;;;;;;;;;5003331;28;100158;-73
2022/12/08 11:37:32;;;;;;;1.83;1.60;;;;;;;;;;4999258;28;98890;-73
2022/12/08 11:40:03;;;;;;;1.35;1.35;;;;;;;;;;4996612;28;98633;-73
2022/12/08 11:42:34;;;;;;;2.00;1.50;;;;;;;;;;4990833;28;101048;-72
2022/12/08 11:45:04;;;;;;;2.58;1.25;;;;;;;;;;5000193;28;100451;-72
2022/12/08 11:47:54;;;;;;;2.33;1.27;;;;;;;;;;4996792;28;100314;-73
2022/12/08 11:50:24;;;;;;;1.77;1.20;;;;;;;;;;4991536;28;99630;-72
2022/12/08 11:52:51;;;;;;;1.38;1.38;;;;;;;;;;4999868;28;99693;-73
2022/12/08 11:55:20;;;;;;;1.33;1.23;;;;;;;;;;5000851;28;99401;-72
2022/12/08 11:57:47;;;;;;;1.50;1.50;;;;;;;;;;5002271;28;99375;-72
2022/12/08 12:00:15;;;;;;;1.83;1.65;;;;;;;;;;4997411;28;99313;-72
2022/12/08 12:02:44;;;;;;;1.60;1.50;;;;;;;;;;5003977;28;98971;-72
2022/12/08 12:05:28;;;;;;;3.78;1.63;;;;;;;;;;5002631;28;98500;-72
2022/12/08 12:08:21;;;;;;;1.50;1.40;;;;;;;;;;5000308;28;99954;-72
2022/12/08 12:11:03;;;;;;;2.72;1.63;;;;;;;;;;4991485;28;100511;-73
2022/12/08 12:13:53;;;;;;;2.20;1.70;;;;;;;;;;4992974;28;101066;-73
2022/12/08 12:16:29;;;;;;;1.70;1.60;;;;;;;;;;4992479;28;100046;-72
2022/12/08 12:18:58;;;;;;;2.28;2.08;;;;;;;;;;4994815;28;98946;-73
2022/12/08 12:21:28;;;;;;;2.08;1.98;;;;;;;;;;5000630;28;100159;-73
2022/12/08 12:23:56;;;;;;;3.15;2.10;;;;;;;;;;4995254;28;99222;-73
2022/12/08 12:26:24;;;;;;;2.45;2.05;;;;;;;;;;4999257;28;100148;-73
2022/12/08 12:28:56;;;;;;;5.45;2.10;;;;;;;;;;4998687;28;100373;-71
2022/12/08 12:31:52;;;;;;;3.13;2.67;;;;;;;;;;4995948;28;99854;-73
2022/12/08 12:34:23;;;;;;;2.10;2.00;;;;;;;;;;4980631;28;100570;-72
2022/12/08 12:36:54;;;;;;;2.13;2.03;;;;;;;;;;4995992;28;99951;-71
2022/12/08 12:39:24;;;;;;;2.72;1.45;;;;;;;;;;4994399;28;100045;-72
2022/12/08 12:41:54;;;;;;;2.38;1.30;;;;;;;;;;4997506;28;100666;-72
2022/12/08 12:44:22;;;;;;;2.13;1.40;;;;;;;;;;4994866;28;99180;-72
2022/12/08 12:46:49;;;;;;;3.63;1.80;;;;;;;;;;4996961;28;99844;-73
2022/12/08 12:49:34;;;;;;;1.25;1.25;;;;;;;;;;5002323;28;101760;-73
2022/12/08 12:52:00;;;;;;;2.22;1.23;;;;;;;;;;5002592;28;100287;-71
2022/12/08 12:54:28;;;;;;;1.00;1.00;;;;;;;;;;4997003;28;99737;-72
2022/12/08 12:57:17;;;;;;;1.75;1.20;;;;;;;;;;5000713;28;99365;-72
2022/12/08 12:59:44;;;;;;;1.30;1.20;;;;;;;;;;5003106;28;98648;-73
2022/12/08 13:02:18;;;;;;;2.72;1.67;;;;;;;;;;5004464;28;100832;-73
2022/12/08 13:04:53;;;;;;;1.67;1.58;;;;;;;;;;4997592;28;101084;-72
2022/12/08 13:07:20;;;;;;;2.58;1.50;;;;;;;;;;5002322;28;100771;-73
2022/12/08 13:09:54;;;;;;;3.17;1.90;;;;;;;;;;5001150;28;100809;-73
2022/12/08 13:12:22;;;;;;;3.78;2.38;;;;;;;;;;4997497;28;100182;-73
2022/12/08 13:14:49;;;;;;;2.33;2.13;;;;;;;;;;4987196;28;100110;-73
2022/12/08 13:17:23;;;;;;;2.30;2.20;;;;;;;;;;5003222;28;101371;-73
2022/12/08 13:19:52;;;;;;;3.13;2.40;;;;;;;;;;4998515;28;100011;-73
2022/12/08 13:22:37;;;;;;;2.83;2.63;;;;;;;;;;5004182;28;98548;-73
2022/12/08 13:25:22;;;;;;;2.67;2.58;;;;;;;;;;5005543;28;99146;-74
2022/12/08 13:27:52;;;;;;;2.30;2.20;;;;;;;;;;4998196;28;100351;-72
2022/12/08 13:30:37;;;;;;;3.00;2.80;;;;;;;;;;5005151;28;101076;-73
2022/12/08 13:33:04;;;;;;;4.28;2.70;;;;;;;;;;4994074;28;98911;-74
2022/12/08 13:35:50;;;;;;;2.67;2.50;;;;;;;;;;4990092;28;100178;-72
2022/12/08 13:38:19;;;;;;;2.45;2.25;;;;;;;;;;5000535;28;100190;-73
2022/12/08 13:40:46;;;;;;;1.98;1.88;;;;;;;;;;5002967;28;99464;-73
2022/12/08 13:43:18;;;;;;;2.25;2.13;;;;;;;;;;5002417;28;100211;-73
2022/12/08 13:45:45;;;;;;;2.78;1.98;;;;;;;;;;5003669;28;99567;-73
2022/12/08 13:48:39;;;;;;;1.83;1.60;;;;;;;;;;4993371;28;99023;-73
2022/12/08 13:51:27;;;;;;;2.83;1.95;;;;;;;;;;4992375;28;100676;-74
2022/12/08 13:54:23;;;;;;;1.98;1.60;;;;;;;;;;4990777;28;99574;-73
2022/12/08 13:57:22;;;;;;;1.80;1.73;;;;;;;;;;4991527;28;99917;-74
2022/12/08 13:59:49;;;;;;;2.03;1.92;;;;;;;;;;4990881;28;99023;-74
2022/12/08 14:02:47;;;;;;;1.83;1.70;;;;;;;;;;4999166;28;99663;-74
2022/12/08 14:05:15;;;;;;;1.77;1.60;;;;;;;;;;4962663;28;99590;-74
2022/12/08 14:07:45;;;;;;;2.17;2.08;;;;;;;;;;4994397;28;100057;-73
2022/12/08 14:10:15;;;;;;;3.72;2.35;;;;;;;;;;4992994;28;100162;-74
2022/12/08 14:12:44;;;;;;;2.92;1.95;;;;;;;;;;4997100;28;100214;-74
2022/12/08 14:15:12;;;;;;;2.35;2.25;;;;;;;;;;4991535;28;99999;-74
2022/12/08 14:17:39;;;;;;;2.60;2.40;;;;;;;;;;4997026;28;99288;-74
2022/12/08 14:20:11;;;;;;;2.17;2.08;;;;;;;;;;5000858;28;100550;-73
2022/12/08 14:22:38;;;;;;;2.40;2.05;;;;;;;;;;5003402;28;100280;-73
2022/12/08 14:25:05;;;;;;;2.88;2.67;;;;;;;;;;4997210;28;100293;-74
2022/12/08 14:27:34;;;;;;;2.85;2.60;;;;;;;;;;5005087;28;100138;-74
2022/12/08 14:30:04;;;;;;;2.58;2.47;;;;;;;;;;5002021;28;100539;-74
2022/12/08 14:32:36;;;;;;;3.20;3.00;;;;;;;;;;4985781;28;100565;-73
2022/12/08 14:35:05;;;;;;;4.20;2.80;;;;;;;;;;4995811;28;99157;-73
2022/12/08 14:37:42;;;;;;;3.20;3.00;;;;;;;;;;4990423;28;100209;-74
2022/12/08 14:40:17;;;;;;;3.50;3.30;;;;;;;;;;5005601;28;98670;-74
2022/12/08 14:42:54;;;;;;;3.88;3.67;;;;;;;;;;5000508;28;100129;-73
2022/12/08 14:45:20;;;;;;;4.15;3.95;;;;;;;;;;4989743;28;100643;-74
2022/12/08 14:47:47;;;;;;;5.03;4.10;;;;;;;;;;4995536;28;99285;-74
2022/12/08 14:50:35;;;;;;;4.75;4.45;;;;;;;;;;4995681;28;101815;-74
2022/12/08 14:53:02;;;;;;;4.47;4.20;;;;;;;;;;4994639;28;100446;-73
2022/12/08 14:55:33;;;;;;;5.13;4.40;;;;;;;;;;4993340;28;100116;-73